sensor_id;sensor_type;location;lat;lon;timestamp;pressure;altitude;pressure_sealevel;temperature;humidity
498;BME280;39559;48.630;9.162;2023-03-21T00:01:20;97696.59;;;5.87;100.00
498;BME280;39559;48.630;9.162;2023-03-21T00:03:45;97696.59;;;5.87;100.00
498;BME280;39559;48.630;9.162;2023-03-21T00:06:13;97686.44;;;5.79;100.00
498;BME280;39559;48.630;9.162;2023-03-21T00:08:39;97687.19;;;5.86;100.00
498;BME280;39559;48.630;9.162;2023-03-21T00:11:07;97682.66;;;5.99;100.00
498;BME280;39559;48.630;9.162;2023-03-21T00:13:34;97684.22;;;6.06;100.00
498;BME280;39559;48.630;9.162;2023-03-21T00:16:07;97688.50;;;6.05;100.00
498;BME280;39559;48.630;9.162;2023-03-21T00:18:34;97685.88;;;6.08;100.00
498;BME280;39559;48.630;9.162;2023-03-21T00:22:53;97679.28;;;5.93;100.00
498;BME280;39559;48.630;9.162;2023-03-21T00:25:20;97682.78;;;5.89;100.00
498;BME280;39559;48.630;9.162;2023-03-21T00:27:46;97685.66;;;5.75;100.00
498;BME280;39559;48.630;9.162;2023-03-21T00:30:12;97669.44;;;5.70;100.00
498;BME280;39559;48.630;9.162;2023-03-21T00:32:38;97673.94;;;5.61;100.00
498;BME280;39559;48.630;9.162;2023-03-21T00:35:05;97671.34;;;5.61;100.00
498;BME280;39559;48.630;9.162;2023-03-21T00:37:31;97665.03;;;5.75;100.00
498;BME280;39559;48.630;9.162;2023-03-21T00:39:57;97664.00;;;5.86;100.00
498;BME280;39559;48.630;9.162;2023-03-21T00:42:24;97657.00;;;5.89;100.00
498;BME280;39559;48.630;9.162;2023-03-21T00:46:51;97651.81;;;5.91;100.00
498;BME280;39559;48.630;9.162;2023-03-21T00:49:17;97649.50;;;6.21;100.00
498;BME280;39559;48.630;9.162;2023-03-21T00:51:45;97650.38;;;6.20;100.00
498;BME280;39559;48.630;9.162;2023-03-21T00:54:16;97646.56;;;5.99;100.00
498;BME280;39559;48.630;9.162;2023-03-21T00:56:42;97641.47;;;5.95;100.00
498;BME280;39559;48.630;9.162;2023-03-21T00:59:08;97637.97;;;5.98;100.00
498;BME280;39559;48.630;9.162;2023-03-21T01:01:34;97638.22;;;5.86;100.00
498;BME280;39559;48.630;9.162;2023-03-21T01:04:00;97640.88;;;5.81;100.00
498;BME280;39559;48.630;9.162;2023-03-21T01:06:36;97637.31;;;5.87;100.00
498;BME280;39559;48.630;9.162;2023-03-21T01:10:50;97635.72;;;5.81;100.00
498;BME280;39559;48.630;9.162;2023-03-21T01:13:18;97633.22;;;5.76;100.00
498;BME280;39559;48.630;9.162;2023-03-21T01:15:47;97634.06;;;5.79;100.00
498;BME280;39559;48.630;9.162;2023-03-21T01:18:15;97640.03;;;5.81;100.00
498;BME280;39559;48.630;9.162;2023-03-21T01:20:42;97636.66;;;5.77;100.00
498;BME280;39559;48.630;9.162;2023-03-21T01:23:09;97631.28;;;5.88;100.00
498;BME280;39559;48.630;9.162;2023-03-21T01:25:35;97631.53;;;5.75;100.00
498;BME280;39559;48.630;9.162;2023-03-21T01:28:01;97630.56;;;5.81;100.00
498;BME280;39559;48.630;9.162;2023-03-21T01:30:26;97629.53;;;5.90;100.00
498;BME280;39559;48.630;9.162;2023-03-21T01:34:49;97630.19;;;6.00;100.00
498;BME280;39559;48.630;9.162;2023-03-21T01:37:14;97631.88;;;6.02;100.00
498;BME280;39559;48.630;9.162;2023-03-21T01:39:42;97627.91;;;5.86;100.00
498;BME280;39559;48.630;9.162;2023-03-21T01:42:11;97631.28;;;5.88;100.00
498;BME280;39559;48.630;9.162;2023-03-21T01:47:54;97624.47;;;5.84;100.00
498;BME280;39559;48.630;9.162;2023-03-21T01:50:19;97621.78;;;5.90;100.00
498;BME280;39559;48.630;9.162;2023-03-21T01:52:48;97621.63;;;5.99;100.00
498;BME280;39559;48.630;9.162;2023-03-21T01:55:15;97622.66;;;5.89;100.00
498;BME280;39559;48.630;9.162;2023-03-21T01:58:49;97619.34;;;5.84;100.00
498;BME280;39559;48.630;9.162;2023-03-21T02:01:17;97619.53;;;5.74;100.00
498;BME280;39559;48.630;9.162;2023-03-21T02:03:45;97615.06;;;5.83;100.00
498;BME280;39559;48.630;9.162;2023-03-21T02:06:21;97613.59;;;5.71;100.00
498;BME280;39559;48.630;9.162;2023-03-21T02:08:48;97612.56;;;5.80;100.00
498;BME280;39559;48.630;9.162;2023-03-21T02:11:15;97606.44;;;5.84;100.00
498;BME280;39559;48.630;9.162;2023-03-21T02:13:41;97608.91;;;5.90;100.00
498;BME280;39559;48.630;9.162;2023-03-21T02:16:25;97599.28;;;5.98;100.00
498;BME280;39559;48.630;9.162;2023-03-21T02:19:03;97607.78;;;6.03;100.00
498;BME280;39559;48.630;9.162;2023-03-21T02:28:46;97605.25;;;6.00;100.00
498;BME280;39559;48.630;9.162;2023-03-21T02:31:27;97603.53;;;6.02;100.00
498;BME280;39559;48.630;9.162;2023-03-21T02:46:53;97591.13;;;5.77;100.00
498;BME280;39559;48.630;9.162;2023-03-21T02:51:46;97589.91;;;5.95;100.00
498;BME280;39559;48.630;9.162;2023-03-21T02:54:21;97587.34;;;5.94;100.00
498;BME280;39559;48.630;9.162;2023-03-21T02:56:49;97584.69;;;5.99;100.00
498;BME280;39559;48.630;9.162;2023-03-21T02:59:18;97590.63;;;6.02;100.00
498;BME280;39559;48.630;9.162;2023-03-21T03:01:45;97583.00;;;5.98;100.00
498;BME280;39559;48.630;9.162;2023-03-21T03:04:25;97580.31;;;6.02;100.00
498;BME280;39559;48.630;9.162;2023-03-21T03:07:08;97585.09;;;6.18;100.00
498;BME280;39559;48.630;9.162;2023-03-21T03:13:55;97590.75;;;5.94;100.00
498;BME280;39559;48.630;9.162;2023-03-21T03:19:03;97594.63;;;5.75;100.00
498;BME280;39559;48.630;9.162;2023-03-21T03:26:52;97592.09;;;5.73;100.00
498;BME280;39559;48.630;9.162;2023-03-21T03:29:20;97587.53;;;5.85;100.00
498;BME280;39559;48.630;9.162;2023-03-21T03:31:51;97588.19;;;5.93;100.00
498;BME280;39559;48.630;9.162;2023-03-21T03:34:47;97582.22;;;5.92;100.00
498;BME280;39559;48.630;9.162;2023-03-21T03:37:18;97579.47;;;5.61;100.00
498;BME280;39559;48.630;9.162;2023-03-21T03:39:56;97581.81;;;5.72;100.00
498;BME280;39559;48.630;9.162;2023-03-21T03:42:47;97577.56;;;5.69;100.00
498;BME280;39559;48.630;9.162;2023-03-21T03:45:13;97576.81;;;5.66;100.00
498;BME280;39559;48.630;9.162;2023-03-21T03:47:50;97574.34;;;5.58;100.00
498;BME280;39559;48.630;9.162;2023-03-21T03:50:27;97571.16;;;5.47;100.00
498;BME280;39559;48.630;9.162;2023-03-21T03:53:02;97571.31;;;5.41;100.00
498;BME280;39559;48.630;9.162;2023-03-21T03:55:31;97565.00;;;5.54;100.00
498;BME280;39559;48.630;9.162;2023-03-21T03:58:42;97557.13;;;5.60;100.00
498;BME280;39559;48.630;9.162;2023-03-21T04:01:08;97563.13;;;5.62;100.00
498;BME280;39559;48.630;9.162;2023-03-21T04:03:36;97564.16;;;5.55;100.00
498;BME280;39559;48.630;9.162;2023-03-21T04:06:03;97559.19;;;5.46;100.00
498;BME280;39559;48.630;9.162;2023-03-21T04:08:29;97550.56;;;5.47;100.00
498;BME280;39559;48.630;9.162;2023-03-21T04:10:55;97548.81;;;5.49;100.00
498;BME280;39559;48.630;9.162;2023-03-21T04:13:21;97550.59;;;5.45;100.00
498;BME280;39559;48.630;9.162;2023-03-21T04:15:46;97548.81;;;5.47;100.00
498;BME280;39559;48.630;9.162;2023-03-21T04:18:12;97554.13;;;5.41;100.00
498;BME280;39559;48.630;9.162;2023-03-21T04:22:41;97553.38;;;5.36;100.00
498;BME280;39559;48.630;9.162;2023-03-21T04:25:07;97551.91;;;5.24;100.00
498;BME280;39559;48.630;9.162;2023-03-21T04:27:33;97549.63;;;5.09;100.00
498;BME280;39559;48.630;9.162;2023-03-21T04:29:58;97556.47;;;5.10;100.00
498;BME280;39559;48.630;9.162;2023-03-21T04:32:25;97547.41;;;4.90;100.00
498;BME280;39559;48.630;9.162;2023-03-21T04:34:51;97552.41;;;4.96;100.00
498;BME280;39559;48.630;9.162;2023-03-21T04:37:20;97556.31;;;4.72;100.00
498;BME280;39559;48.630;9.162;2023-03-21T04:39:51;97555.53;;;4.67;100.00
498;BME280;39559;48.630;9.162;2023-03-21T04:42:17;97555.78;;;4.55;100.00
498;BME280;39559;48.630;9.162;2023-03-21T04:46:40;97556.69;;;4.49;100.00
498;BME280;39559;48.630;9.162;2023-03-21T04:49:06;97555.06;;;4.45;100.00
498;BME280;39559;48.630;9.162;2023-03-21T04:51:33;97557.84;;;4.33;100.00
498;BME280;39559;48.630;9.162;2023-03-21T04:53:58;97562.00;;;4.40;100.00
498;BME280;39559;48.630;9.162;2023-03-21T04:56:25;97557.44;;;4.06;100.00
498;BME280;39559;48.630;9.162;2023-03-21T04:58:58;97562.09;;;3.78;100.00
498;BME280;39559;48.630;9.162;2023-03-21T05:01:24;97561.38;;;3.71;100.00
498;BME280;39559;48.630;9.162;2023-03-21T05:03:56;97551.13;;;3.68;100.00
498;BME280;39559;48.630;9.162;2023-03-21T05:06:22;97566.69;;;3.56;100.00
498;BME280;39559;48.630;9.162;2023-03-21T05:10:38;97565.06;;;3.49;100.00
498;BME280;39559;48.630;9.162;2023-03-21T05:13:04;97562.47;;;3.53;100.00
498;BME280;39559;48.630;9.162;2023-03-21T05:15:29;97559.97;;;3.45;100.00
498;BME280;39559;48.630;9.162;2023-03-21T05:17:55;97564.47;;;3.31;100.00
498;BME280;39559;48.630;9.162;2023-03-21T05:20:23;97562.50;;;3.49;100.00
498;BME280;39559;48.630;9.162;2023-03-21T05:22:49;97565.19;;;3.41;100.00
498;BME280;39559;48.630;9.162;2023-03-21T05:25:17;97566.88;;;3.42;100.00
498;BME280;39559;48.630;9.162;2023-03-21T05:27:46;97573.00;;;3.30;100.00
498;BME280;39559;48.630;9.162;2023-03-21T05:30:18;97573.75;;;3.40;100.00
498;BME280;39559;48.630;9.162;2023-03-21T05:34:38;97571.00;;;3.55;100.00
498;BME280;39559;48.630;9.162;2023-03-21T05:37:03;97565.75;;;3.61;100.00
498;BME280;39559;48.630;9.162;2023-03-21T05:39:29;97567.34;;;3.70;100.00
498;BME280;39559;48.630;9.162;2023-03-21T05:41:54;97567.31;;;3.75;100.00
498;BME280;39559;48.630;9.162;2023-03-21T05:44:20;97566.31;;;3.82;100.00
498;BME280;39559;48.630;9.162;2023-03-21T05:46:45;97563.59;;;3.94;100.00
498;BME280;39559;48.630;9.162;2023-03-21T05:49:11;97566.78;;;4.10;100.00
498;BME280;39559;48.630;9.162;2023-03-21T05:51:37;97571.63;;;4.29;100.00
498;BME280;39559;48.630;9.162;2023-03-21T05:54:02;97569.09;;;4.26;100.00
498;BME280;39559;48.630;9.162;2023-03-21T05:58:37;97579.13;;;3.87;100.00
498;BME280;39559;48.630;9.162;2023-03-21T06:01:03;97572.19;;;3.92;100.00
498;BME280;39559;48.630;9.162;2023-03-21T06:03:28;97578.06;;;4.00;100.00
498;BME280;39559;48.630;9.162;2023-03-21T06:05:54;97577.72;;;4.21;100.00
498;BME280;39559;48.630;9.162;2023-03-21T06:08:19;97563.94;;;4.27;100.00
498;BME280;39559;48.630;9.162;2023-03-21T06:10:45;97572.34;;;4.38;100.00
498;BME280;39559;48.630;9.162;2023-03-21T06:13:10;97567.75;;;4.54;100.00
498;BME280;39559;48.630;9.162;2023-03-21T06:15:36;97578.81;;;4.61;100.00
498;BME280;39559;48.630;9.162;2023-03-21T06:18:01;97571.16;;;4.56;100.00
498;BME280;39559;48.630;9.162;2023-03-21T06:22:36;97575.97;;;4.23;100.00
498;BME280;39559;48.630;9.162;2023-03-21T06:25:03;97574.50;;;4.09;100.00
498;BME280;39559;48.630;9.162;2023-03-21T06:27:29;97574.75;;;3.93;100.00
498;BME280;39559;48.630;9.162;2023-03-21T06:29:55;97568.06;;;3.80;100.00
498;BME280;39559;48.630;9.162;2023-03-21T06:32:22;97576.50;;;3.90;100.00
498;BME280;39559;48.630;9.162;2023-03-21T06:34:48;97574.72;;;3.95;100.00
498;BME280;39559;48.630;9.162;2023-03-21T06:37:14;97571.13;;;4.07;100.00
498;BME280;39559;48.630;9.162;2023-03-21T06:39:39;97563.16;;;4.22;100.00
498;BME280;39559;48.630;9.162;2023-03-21T06:42:05;97571.66;;;4.26;100.00
498;BME280;39559;48.630;9.162;2023-03-21T06:46:35;97575.94;;;4.28;100.00
498;BME280;39559;48.630;9.162;2023-03-21T06:49:01;97575.75;;;4.39;100.00
498;BME280;39559;48.630;9.162;2023-03-21T06:51:27;97571.31;;;4.47;100.00
498;BME280;39559;48.630;9.162;2023-03-21T06:53:52;97576.09;;;4.69;100.00
498;BME280;39559;48.630;9.162;2023-03-21T06:56:18;97567.25;;;4.84;100.00
498;BME280;39559;48.630;9.162;2023-03-21T06:58:44;97567.94;;;4.93;100.00
498;BME280;39559;48.630;9.162;2023-03-21T07:01:10;97561.69;;;5.05;100.00
498;BME280;39559;48.630;9.162;2023-03-21T07:03:36;97566.47;;;5.24;100.00
498;BME280;39559;48.630;9.162;2023-03-21T07:06:10;97561.81;;;5.43;100.00
498;BME280;39559;48.630;9.162;2023-03-21T07:10:38;97564.50;;;5.79;100.00
498;BME280;39559;48.630;9.162;2023-03-21T07:13:03;97560.59;;;6.00;100.00
498;BME280;39559;48.630;9.162;2023-03-21T07:15:29;97557.72;;;6.13;100.00
498;BME280;39559;48.630;9.162;2023-03-21T07:17:54;97555.66;;;6.28;100.00
498;BME280;39559;48.630;9.162;2023-03-21T07:20:20;97553.41;;;6.48;100.00
498;BME280;39559;48.630;9.162;2023-03-21T07:22:45;97555.19;;;6.81;100.00
498;BME280;39559;48.630;9.162;2023-03-21T07:25:11;97557.03;;;7.07;100.00
498;BME280;39559;48.630;9.162;2023-03-21T07:27:37;97553.91;;;7.27;100.00
498;BME280;39559;48.630;9.162;2023-03-21T07:30:03;97554.09;;;7.50;100.00
498;BME280;39559;48.630;9.162;2023-03-21T07:34:35;97555.41;;;7.94;100.00
498;BME280;39559;48.630;9.162;2023-03-21T07:37:00;97555.66;;;8.13;100.00
498;BME280;39559;48.630;9.162;2023-03-21T07:39:26;97549.78;;;8.07;100.00
498;BME280;39559;48.630;9.162;2023-03-21T07:41:52;97553.31;;;8.33;100.00
498;BME280;39559;48.630;9.162;2023-03-21T07:44:22;97556.00;;;8.57;100.00
498;BME280;39559;48.630;9.162;2023-03-21T07:46:48;97547.16;;;8.88;100.00
498;BME280;39559;48.630;9.162;2023-03-21T07:49:14;97552.16;;;8.94;100.00
498;BME280;39559;48.630;9.162;2023-03-21T07:51:40;97551.41;;;9.15;100.00
498;BME280;39559;48.630;9.162;2023-03-21T07:54:05;97545.75;;;9.28;100.00
498;BME280;39559;48.630;9.162;2023-03-21T07:58:34;97536.63;;;9.87;100.00
498;BME280;39559;48.630;9.162;2023-03-21T08:01:00;97542.91;;;10.03;100.00
498;BME280;39559;48.630;9.162;2023-03-21T08:03:26;97538.44;;;10.07;100.00
498;BME280;39559;48.630;9.162;2023-03-21T08:05:54;97543.16;;;10.41;100.00
498;BME280;39559;48.630;9.162;2023-03-21T08:08:20;97538.69;;;10.45;100.00
498;BME280;39559;48.630;9.162;2023-03-21T08:10:46;97544.81;;;10.42;100.00
498;BME280;39559;48.630;9.162;2023-03-21T08:13:11;97535.16;;;10.46;100.00
498;BME280;39559;48.630;9.162;2023-03-21T08:15:37;97529.59;;;10.55;100.00
498;BME280;39559;48.630;9.162;2023-03-21T08:18:06;97532.34;;;10.72;100.00
498;BME280;39559;48.630;9.162;2023-03-21T08:22:34;97521.38;;;11.05;95.91
498;BME280;39559;48.630;9.162;2023-03-21T08:25:02;97522.41;;;11.22;95.46
498;BME280;39559;48.630;9.162;2023-03-21T08:27:31;97520.78;;;11.19;94.63
498;BME280;39559;48.630;9.162;2023-03-21T08:29:58;97514.16;;;11.51;94.90
498;BME280;39559;48.630;9.162;2023-03-21T08:32:24;97518.56;;;11.68;95.27
498;BME280;39559;48.630;9.162;2023-03-21T08:34:56;97513.63;;;11.62;90.67
498;BME280;39559;48.630;9.162;2023-03-21T08:37:23;97510.94;;;11.64;86.93
498;BME280;39559;48.630;9.162;2023-03-21T08:39:49;97509.81;;;11.88;86.11
498;BME280;39559;48.630;9.162;2023-03-21T08:42:15;97503.78;;;12.42;89.48
498;BME280;39559;48.630;9.162;2023-03-21T08:46:32;97509.41;;;12.52;85.82
498;BME280;39559;48.630;9.162;2023-03-21T08:48:58;97508.06;;;12.78;83.02
498;BME280;39559;48.630;9.162;2023-03-21T08:51:23;97501.13;;;12.94;82.90
498;BME280;39559;48.630;9.162;2023-03-21T08:53:49;97502.78;;;13.13;81.45
498;BME280;39559;48.630;9.162;2023-03-21T08:56:17;97494.06;;;12.96;75.83
498;BME280;39559;48.630;9.162;2023-03-21T08:58:43;97503.25;;;13.03;75.87
498;BME280;39559;48.630;9.162;2023-03-21T09:01:10;97500.66;;;13.37;75.01
498;BME280;39559;48.630;9.162;2023-03-21T09:03:40;97498.56;;;13.43;71.52
498;BME280;39559;48.630;9.162;2023-03-21T09:06:07;97493.59;;;13.55;72.01
498;BME280;39559;48.630;9.162;2023-03-21T09:10:32;97491.28;;;13.66;71.64
498;BME280;39559;48.630;9.162;2023-03-21T09:12:58;97500.69;;;13.53;65.78
498;BME280;39559;48.630;9.162;2023-03-21T09:15:26;97496.78;;;13.28;74.76
498;BME280;39559;48.630;9.162;2023-03-21T09:17:53;97497.50;;;12.97;74.29
498;BME280;39559;48.630;9.162;2023-03-21T09:20:23;97501.47;;;12.01;72.06
498;BME280;39559;48.630;9.162;2023-03-21T09:22:55;97504.41;;;12.64;66.95
498;BME280;39559;48.630;9.162;2023-03-21T09:25:21;97500.69;;;13.19;67.73
498;BME280;39559;48.630;9.162;2023-03-21T09:27:49;97495.91;;;13.28;63.83
498;BME280;39559;48.630;9.162;2023-03-21T09:30:17;97500.75;;;13.35;65.37
498;BME280;39559;48.630;9.162;2023-03-21T09:34:31;97500.03;;;13.65;64.08
498;BME280;39559;48.630;9.162;2023-03-21T09:36:57;97501.09;;;13.93;64.65
498;BME280;39559;48.630;9.162;2023-03-21T09:39:22;97498.91;;;13.53;64.62
498;BME280;39559;48.630;9.162;2023-03-21T09:42:01;97498.25;;;13.66;63.09
498;BME280;39559;48.630;9.162;2023-03-21T09:47:11;97483.34;;;14.30;64.40
498;BME280;39559;48.630;9.162;2023-03-21T09:49:43;97484.69;;;14.51;62.99
498;BME280;39559;48.630;9.162;2023-03-21T09:52:45;97482.63;;;14.42;60.29
498;BME280;39559;48.630;9.162;2023-03-21T09:55:18;97485.78;;;14.02;59.81
498;BME280;39559;48.630;9.162;2023-03-21T09:58:42;97475.66;;;15.02;61.04
498;BME280;39559;48.630;9.162;2023-03-21T10:01:16;97475.25;;;15.22;57.39
498;BME280;39559;48.630;9.162;2023-03-21T10:04:07;97483.22;;;15.06;59.53
498;BME280;39559;48.630;9.162;2023-03-21T10:06:37;97477.03;;;14.93;56.79
498;BME280;39559;48.630;9.162;2023-03-21T10:09:37;97466.66;;;15.49;55.67
498;BME280;39559;48.630;9.162;2023-03-21T10:12:03;97466.03;;;15.16;56.62
498;BME280;39559;48.630;9.162;2023-03-21T10:14:38;97464.75;;;14.50;56.63
498;BME280;39559;48.630;9.162;2023-03-21T10:22:28;97454.22;;;15.52;54.87
498;BME280;39559;48.630;9.162;2023-03-21T10:24:54;97452.78;;;16.03;56.11
498;BME280;39559;48.630;9.162;2023-03-21T10:27:20;97447.31;;;15.79;55.70
498;BME280;39559;48.630;9.162;2023-03-21T10:29:46;97446.50;;;15.08;55.62
498;BME280;39559;48.630;9.162;2023-03-21T10:32:14;97448.81;;;14.25;60.08
498;BME280;39559;48.630;9.162;2023-03-21T10:34:50;97444.00;;;14.47;55.53
498;BME280;39559;48.630;9.162;2023-03-21T10:37:17;97445.88;;;14.90;55.22
498;BME280;39559;48.630;9.162;2023-03-21T10:39:45;97444.53;;;15.11;55.18
498;BME280;39559;48.630;9.162;2023-03-21T10:42:42;97445.66;;;15.78;54.06
498;BME280;39559;48.630;9.162;2023-03-21T10:46:27;97435.94;;;15.80;54.05
498;BME280;39559;48.630;9.162;2023-03-21T10:48:53;97433.44;;;15.91;55.43
498;BME280;39559;48.630;9.162;2023-03-21T10:51:21;97439.13;;;15.98;52.56
498;BME280;39559;48.630;9.162;2023-03-21T10:53:58;97440.25;;;15.66;54.50
498;BME280;39559;48.630;9.162;2023-03-21T10:56:27;97443.44;;;15.57;56.70
498;BME280;39559;48.630;9.162;2023-03-21T10:58:57;97440.44;;;15.22;55.34
498;BME280;39559;48.630;9.162;2023-03-21T11:01:39;97442.56;;;15.29;54.74
498;BME280;39559;48.630;9.162;2023-03-21T11:04:09;97443.81;;;15.51;52.07
498;BME280;39559;48.630;9.162;2023-03-21T11:06:41;97437.59;;;15.81;54.63
498;BME280;39559;48.630;9.162;2023-03-21T11:10:31;97439.69;;;15.76;54.73
498;BME280;39559;48.630;9.162;2023-03-21T11:13:03;97434.41;;;15.90;53.54
498;BME280;39559;48.630;9.162;2023-03-21T11:18:25;97418.63;;;15.50;56.10
498;BME280;39559;48.630;9.162;2023-03-21T11:21:02;97422.97;;;15.91;54.72
498;BME280;39559;48.630;9.162;2023-03-21T11:23:31;97418.06;;;15.45;56.31
498;BME280;39559;48.630;9.162;2023-03-21T11:25:59;97421.03;;;15.39;55.32
498;BME280;39559;48.630;9.162;2023-03-21T11:28:26;97421.91;;;15.39;56.21
498;BME280;39559;48.630;9.162;2023-03-21T11:30:59;97426.59;;;15.34;56.71
498;BME280;39559;48.630;9.162;2023-03-21T11:35:27;97426.22;;;14.97;58.89
498;BME280;39559;48.630;9.162;2023-03-21T11:37:26;97423.38;;;14.57;57.64
498;BME280;39559;48.630;9.162;2023-03-21T11:40:20;97424.06;;;14.61;57.82
498;BME280;39559;48.630;9.162;2023-03-21T11:42:48;97418.88;;;14.30;59.61
498;BME280;39559;48.630;9.162;2023-03-21T11:45:24;97423.34;;;14.58;59.72
498;BME280;39559;48.630;9.162;2023-03-21T11:47:53;97413.47;;;14.92;58.32
498;BME280;39559;48.630;9.162;2023-03-21T11:50:35;97406.59;;;15.19;60.99
498;BME280;39559;48.630;9.162;2023-03-21T11:53:28;97390.56;;;15.10;60.29
498;BME280;39559;48.630;9.162;2023-03-21T12:01:04;97385.75;;;15.17;62.25
498;BME280;39559;48.630;9.162;2023-03-21T12:06:42;97382.13;;;15.20;60.95
498;BME280;39559;48.630;9.162;2023-03-21T12:09:27;97380.94;;;15.11;60.77
498;BME280;39559;48.630;9.162;2023-03-21T12:12:01;97375.00;;;15.36;59.63
498;BME280;39559;48.630;9.162;2023-03-21T12:14:59;97374.22;;;15.48;58.09
498;BME280;39559;48.630;9.162;2023-03-21T12:22:26;97356.25;;;15.15;59.26
498;BME280;39559;48.630;9.162;2023-03-21T12:24:58;97351.34;;;15.38;57.34
498;BME280;39559;48.630;9.162;2023-03-21T12:33:13;97351.81;;;15.03;58.78
498;BME280;39559;48.630;9.162;2023-03-21T12:36:01;97351.84;;;14.74;60.71
498;BME280;39559;48.630;9.162;2023-03-21T12:48:49;97331.44;;;15.35;58.91
498;BME280;39559;48.630;9.162;2023-03-21T12:51:25;97341.66;;;15.25;57.22
498;BME280;39559;48.630;9.162;2023-03-21T12:59:26;97331.97;;;15.67;58.49
498;BME280;39559;48.630;9.162;2023-03-21T13:01:58;97322.53;;;15.65;57.72
498;BME280;39559;48.630;9.162;2023-03-21T13:04:37;97328.81;;;16.02;57.93
498;BME280;39559;48.630;9.162;2023-03-21T13:07:07;97317.94;;;16.08;56.41
498;BME280;39559;48.630;9.162;2023-03-21T13:10:17;97314.06;;;16.40;53.46
498;BME280;39559;48.630;9.162;2023-03-21T13:15:43;97318.66;;;16.23;54.81
498;BME280;39559;48.630;9.162;2023-03-21T13:21:14;97310.03;;;16.60;49.17
498;BME280;39559;48.630;9.162;2023-03-21T13:23:56;97305.25;;;16.28;50.88
498;BME280;39559;48.630;9.162;2023-03-21T13:26:31;97298.09;;;16.68;48.70
498;BME280;39559;48.630;9.162;2023-03-21T13:28:57;97300.06;;;16.78;47.22
498;BME280;39559;48.630;9.162;2023-03-21T13:31:24;97295.66;;;17.15;50.34
498;BME280;39559;48.630;9.162;2023-03-21T13:34:11;97293.31;;;16.99;47.08
498;BME280;39559;48.630;9.162;2023-03-21T13:36:38;97302.09;;;16.48;48.80
498;BME280;39559;48.630;9.162;2023-03-21T13:39:20;97294.41;;;16.71;49.45
498;BME280;39559;48.630;9.162;2023-03-21T13:41:48;97292.63;;;16.59;48.02
498;BME280;39559;48.630;9.162;2023-03-21T13:47:02;97289.31;;;16.05;45.32
498;BME280;39559;48.630;9.162;2023-03-21T13:49:35;97275.16;;;15.42;47.58
498;BME280;39559;48.630;9.162;2023-03-21T13:52:26;97271.53;;;15.58;47.51
498;BME280;39559;48.630;9.162;2023-03-21T13:54:54;97273.78;;;15.36;48.26
498;BME280;39559;48.630;9.162;2023-03-21T13:58:43;97278.72;;;15.41;47.33
498;BME280;39559;48.630;9.162;2023-03-21T14:04:03;97276.25;;;15.65;46.87
498;BME280;39559;48.630;9.162;2023-03-21T14:06:33;97275.31;;;15.66;48.13
498;BME280;39559;48.630;9.162;2023-03-21T14:09:19;97283.91;;;15.68;48.12
498;BME280;39559;48.630;9.162;2023-03-21T14:11:46;97272.34;;;15.98;48.28
498;BME280;39559;48.630;9.162;2023-03-21T14:14:15;97277.91;;;16.06;47.36
498;BME280;39559;48.630;9.162;2023-03-21T14:16:42;97272.34;;;15.98;48.23
498;BME280;39559;48.630;9.162;2023-03-21T14:19:09;97270.78;;;16.08;48.51
498;BME280;39559;48.630;9.162;2023-03-21T14:22:10;97258.94;;;15.77;49.90
498;BME280;39559;48.630;9.162;2023-03-21T14:24:37;97256.81;;;15.95;49.06
498;BME280;39559;48.630;9.162;2023-03-21T14:27:04;97257.63;;;15.70;49.85
498;BME280;39559;48.630;9.162;2023-03-21T14:29:33;97260.41;;;15.94;49.54
498;BME280;39559;48.630;9.162;2023-03-21T14:32:00;97253.38;;;15.82;48.77
498;BME280;39559;48.630;9.162;2023-03-21T14:34:28;97251.69;;;15.81;49.90
498;BME280;39559;48.630;9.162;2023-03-21T14:36:56;97249.31;;;15.90;50.21
498;BME280;39559;48.630;9.162;2023-03-21T14:39:26;97246.25;;;15.84;50.26
498;BME280;39559;48.630;9.162;2023-03-21T14:41:54;97247.59;;;15.77;49.17
498;BME280;39559;48.630;9.162;2023-03-21T14:46:12;97240.81;;;16.00;48.75
498;BME280;39559;48.630;9.162;2023-03-21T14:48:37;97238.81;;;15.78;49.84
498;BME280;39559;48.630;9.162;2023-03-21T14:51:09;97239.03;;;16.00;49.66
498;BME280;39559;48.630;9.162;2023-03-21T14:53:40;97229.84;;;15.54;51.24
498;BME280;39559;48.630;9.162;2023-03-21T14:56:18;97237.19;;;15.62;51.01
498;BME280;39559;48.630;9.162;2023-03-21T14:58:46;97235.19;;;15.53;47.65
498;BME280;39559;48.630;9.162;2023-03-21T15:01:35;97232.81;;;15.63;51.38
498;BME280;39559;48.630;9.162;2023-03-21T15:04:04;97233.59;;;15.78;49.52
498;BME280;39559;48.630;9.162;2023-03-21T15:06:30;97230.13;;;15.90;47.41
498;BME280;39559;48.630;9.162;2023-03-21T15:10:14;97232.28;;;15.58;44.99
498;BME280;39559;48.630;9.162;2023-03-21T15:13:18;97224.09;;;15.62;46.93
498;BME280;39559;48.630;9.162;2023-03-21T15:15:45;97215.97;;;16.05;47.65
498;BME280;39559;48.630;9.162;2023-03-21T15:18:14;97214.38;;;16.28;46.33
498;BME280;39559;48.630;9.162;2023-03-21T15:20:41;97218.28;;;16.23;45.65
498;BME280;39559;48.630;9.162;2023-03-21T15:23:27;97214.50;;;16.14;46.33
498;BME280;39559;48.630;9.162;2023-03-21T15:25:55;97218.28;;;16.23;45.18
498;BME280;39559;48.630;9.162;2023-03-21T15:28:24;97222.03;;;16.19;46.42
498;BME280;39559;48.630;9.162;2023-03-21T15:30:52;97222.03;;;16.06;43.76
498;BME280;39559;48.630;9.162;2023-03-21T15:33:55;97222.38;;;16.01;46.98
498;BME280;39559;48.630;9.162;2023-03-21T15:36:35;97221.09;;;16.20;46.90
498;BME280;39559;48.630;9.162;2023-03-21T15:39:05;97221.53;;;16.26;47.58
498;BME280;39559;48.630;9.162;2023-03-21T15:41:33;97218.50;;;16.07;47.30
498;BME280;39559;48.630;9.162;2023-03-21T15:49:08;97224.00;;;15.64;47.38
498;BME280;39559;48.630;9.162;2023-03-21T15:51:35;97217.09;;;15.63;45.75
498;BME280;39559;48.630;9.162;2023-03-21T15:54:02;97215.31;;;15.63;47.27
498;BME280;39559;48.630;9.162;2023-03-21T15:57:54;97221.94;;;14.89;49.15
498;BME280;39559;48.630;9.162;2023-03-21T16:00:41;97218.72;;;15.25;48.61
498;BME280;39559;48.630;9.162;2023-03-21T16:03:14;97215.53;;;15.20;52.37
498;BME280;39559;48.630;9.162;2023-03-21T16:05:41;97217.22;;;14.81;50.30